Flugwetter

[source: ADDS]
METAR
LOWL 190520Z 10004KT 6000 SCT009 BKN250 M02/M02 Q1020 R08/19//95 TEMPO BKN008 =
TAF LOWL 190515Z 1906/2006 08006KT 6000 SCT008 BKN160 TX00/1914Z TNM02/1906Z TEMPO 1906/1912 11008KT 4000 BR FEW005 BKN006 BECMG 1919/1921 4000 BR BKN005 BKN100 TEMPO 2004/2006 2500 -SN BKN005 BKN030
TAF
TAF LOWL 190515Z 1906/2006 08006KT 6000 SCT008 BKN160 TX00/1914Z TNM02/1906Z TEMPO 1906/1912 11008KT 4000 BR FEW005 BKN006 BECMG 1919/1921 4000 BR BKN005 BKN100 TEMPO 2004/2006 2500 -SN BKN005 BKN030 =